sensor_id;sensor_type;location;lat;lon;timestamp;P1;durP1;ratioP1;P2;durP2;ratioP2
19163;SDS011;9714;51.208;4.242;2023-09-07T00:00:17;11.75;;;4.90;;
19163;SDS011;9714;51.208;4.242;2023-09-07T00:02:45;12.15;;;4.63;;
19163;SDS011;9714;51.208;4.242;2023-09-07T00:05:13;13.27;;;4.97;;
19163;SDS011;9714;51.208;4.242;2023-09-07T00:07:40;9.68;;;4.53;;
19163;SDS011;9714;51.208;4.242;2023-09-07T00:10:07;13.85;;;4.70;;
19163;SDS011;9714;51.208;4.242;2023-09-07T00:12:35;11.88;;;5.25;;
19163;SDS011;9714;51.208;4.242;2023-09-07T00:15:06;11.63;;;4.47;;
19163;SDS011;9714;51.208;4.242;2023-09-07T00:17:35;14.02;;;5.20;;
19163;SDS011;9714;51.208;4.242;2023-09-07T00:20:03;13.18;;;4.38;;
19163;SDS011;9714;51.208;4.242;2023-09-07T00:22:36;11.52;;;4.88;;
19163;SDS011;9714;51.208;4.242;2023-09-07T00:25:04;14.00;;;5.32;;
19163;SDS011;9714;51.208;4.242;2023-09-07T00:27:32;10.50;;;4.28;;
19163;SDS011;9714;51.208;4.242;2023-09-07T00:29:59;13.30;;;5.25;;
19163;SDS011;9714;51.208;4.242;2023-09-07T00:32:28;12.20;;;4.93;;
19163;SDS011;9714;51.208;4.242;2023-09-07T00:34:55;12.73;;;5.22;;
19163;SDS011;9714;51.208;4.242;2023-09-07T00:37:22;11.88;;;5.38;;
19163;SDS011;9714;51.208;4.242;2023-09-07T00:39:49;15.07;;;5.13;;
19163;SDS011;9714;51.208;4.242;2023-09-07T00:42:19;13.43;;;5.47;;
19163;SDS011;9714;51.208;4.242;2023-09-07T00:44:46;11.65;;;4.43;;
19163;SDS011;9714;51.208;4.242;2023-09-07T00:47:13;11.77;;;5.18;;
19163;SDS011;9714;51.208;4.242;2023-09-07T00:49:43;12.30;;;5.03;;
19163;SDS011;9714;51.208;4.242;2023-09-07T00:52:13;10.75;;;4.90;;
19163;SDS011;9714;51.208;4.242;2023-09-07T00:54:46;12.82;;;5.22;;
19163;SDS011;9714;51.208;4.242;2023-09-07T00:57:13;13.25;;;5.72;;
19163;SDS011;9714;51.208;4.242;2023-09-07T00:59:41;10.75;;;5.38;;
19163;SDS011;9714;51.208;4.242;2023-09-07T01:02:14;14.95;;;5.57;;
19163;SDS011;9714;51.208;4.242;2023-09-07T01:07:32;14.02;;;6.45;;
19163;SDS011;9714;51.208;4.242;2023-09-07T01:10:02;21.25;;;7.80;;
19163;SDS011;9714;51.208;4.242;2023-09-07T01:12:29;14.02;;;7.40;;
19163;SDS011;9714;51.208;4.242;2023-09-07T01:14:58;24.42;;;8.10;;
19163;SDS011;9714;51.208;4.242;2023-09-07T01:17:25;18.75;;;8.25;;
19163;SDS011;9714;51.208;4.242;2023-09-07T01:19:54;27.90;;;9.70;;
19163;SDS011;9714;51.208;4.242;2023-09-07T01:24:58;17.33;;;8.52;;
19163;SDS011;9714;51.208;4.242;2023-09-07T01:27:26;16.38;;;7.72;;
19163;SDS011;9714;51.208;4.242;2023-09-07T01:29:54;19.27;;;8.20;;
19163;SDS011;9714;51.208;4.242;2023-09-07T01:32:22;16.55;;;9.05;;
19163;SDS011;9714;51.208;4.242;2023-09-07T01:34:51;15.90;;;8.00;;
19163;SDS011;9714;51.208;4.242;2023-09-07T01:37:21;17.13;;;7.40;;
19163;SDS011;9714;51.208;4.242;2023-09-07T01:39:49;14.38;;;6.65;;
19163;SDS011;9714;51.208;4.242;2023-09-07T01:42:17;12.93;;;6.68;;
19163;SDS011;9714;51.208;4.242;2023-09-07T01:44:48;13.68;;;5.63;;
19163;SDS011;9714;51.208;4.242;2023-09-07T01:47:15;17.10;;;7.32;;
19163;SDS011;9714;51.208;4.242;2023-09-07T01:49:43;17.10;;;6.07;;
19163;SDS011;9714;51.208;4.242;2023-09-07T01:52:10;15.98;;;6.53;;
19163;SDS011;9714;51.208;4.242;2023-09-07T01:54:43;19.30;;;7.50;;
19163;SDS011;9714;51.208;4.242;2023-09-07T01:57:10;14.98;;;7.28;;
19163;SDS011;9714;51.208;4.242;2023-09-07T01:59:39;14.07;;;6.63;;
19163;SDS011;9714;51.208;4.242;2023-09-07T02:02:06;14.05;;;6.25;;
19163;SDS011;9714;51.208;4.242;2023-09-07T02:04:33;12.20;;;6.50;;
19163;SDS011;9714;51.208;4.242;2023-09-07T02:07:01;15.95;;;6.70;;
19163;SDS011;9714;51.208;4.242;2023-09-07T02:09:29;14.65;;;6.75;;
19163;SDS011;9714;51.208;4.242;2023-09-07T02:11:56;14.93;;;6.13;;
19163;SDS011;9714;51.208;4.242;2023-09-07T02:14:23;14.77;;;6.20;;
19163;SDS011;9714;51.208;4.242;2023-09-07T02:16:52;16.40;;;6.05;;
19163;SDS011;9714;51.208;4.242;2023-09-07T02:19:19;19.10;;;6.28;;
19163;SDS011;9714;51.208;4.242;2023-09-07T02:21:47;11.32;;;5.57;;
19163;SDS011;9714;51.208;4.242;2023-09-07T02:24:15;12.02;;;5.88;;
19163;SDS011;9714;51.208;4.242;2023-09-07T02:26:42;17.42;;;6.50;;
19163;SDS011;9714;51.208;4.242;2023-09-07T02:29:10;16.90;;;6.40;;
19163;SDS011;9714;51.208;4.242;2023-09-07T02:31:38;13.02;;;5.88;;
19163;SDS011;9714;51.208;4.242;2023-09-07T02:34:07;12.45;;;6.35;;
19163;SDS011;9714;51.208;4.242;2023-09-07T02:36:43;15.27;;;6.00;;
19163;SDS011;9714;51.208;4.242;2023-09-07T02:39:11;13.63;;;6.53;;
19163;SDS011;9714;51.208;4.242;2023-09-07T02:41:38;15.45;;;6.80;;
19163;SDS011;9714;51.208;4.242;2023-09-07T02:46:35;15.43;;;6.28;;
19163;SDS011;9714;51.208;4.242;2023-09-07T02:49:02;13.23;;;6.28;;
19163;SDS011;9714;51.208;4.242;2023-09-07T02:51:32;14.93;;;6.60;;
19163;SDS011;9714;51.208;4.242;2023-09-07T02:54:02;17.30;;;6.50;;
19163;SDS011;9714;51.208;4.242;2023-09-07T02:56:31;13.90;;;6.32;;
19163;SDS011;9714;51.208;4.242;2023-09-07T02:58:58;12.90;;;6.20;;
19163;SDS011;9714;51.208;4.242;2023-09-07T03:01:25;13.85;;;7.22;;
19163;SDS011;9714;51.208;4.242;2023-09-07T03:03:52;17.05;;;7.20;;
19163;SDS011;9714;51.208;4.242;2023-09-07T03:06:19;13.18;;;6.80;;
19163;SDS011;9714;51.208;4.242;2023-09-07T03:08:47;15.98;;;7.13;;
19163;SDS011;9714;51.208;4.242;2023-09-07T03:11:15;14.18;;;6.70;;
19163;SDS011;9714;51.208;4.242;2023-09-07T03:13:42;13.05;;;7.07;;
19163;SDS011;9714;51.208;4.242;2023-09-07T03:16:10;18.58;;;7.63;;
19163;SDS011;9714;51.208;4.242;2023-09-07T03:18:37;16.55;;;6.90;;
19163;SDS011;9714;51.208;4.242;2023-09-07T03:21:05;16.48;;;7.30;;
19163;SDS011;9714;51.208;4.242;2023-09-07T03:23:33;16.38;;;7.18;;
19163;SDS011;9714;51.208;4.242;2023-09-07T03:26:02;14.90;;;6.95;;
19163;SDS011;9714;51.208;4.242;2023-09-07T03:28:29;18.80;;;7.05;;
19163;SDS011;9714;51.208;4.242;2023-09-07T03:30:56;15.63;;;7.00;;
19163;SDS011;9714;51.208;4.242;2023-09-07T03:33:23;21.88;;;7.93;;
19163;SDS011;9714;51.208;4.242;2023-09-07T03:35:51;14.38;;;6.97;;
19163;SDS011;9714;51.208;4.242;2023-09-07T03:38:23;16.40;;;7.40;;
19163;SDS011;9714;51.208;4.242;2023-09-07T03:40:52;18.13;;;7.25;;
19163;SDS011;9714;51.208;4.242;2023-09-07T03:43:22;14.80;;;7.18;;
19163;SDS011;9714;51.208;4.242;2023-09-07T03:45:50;21.50;;;7.28;;
19163;SDS011;9714;51.208;4.242;2023-09-07T03:48:18;17.40;;;7.15;;
19163;SDS011;9714;51.208;4.242;2023-09-07T03:50:46;18.30;;;7.72;;
19163;SDS011;9714;51.208;4.242;2023-09-07T03:53:13;16.90;;;7.43;;
19163;SDS011;9714;51.208;4.242;2023-09-07T03:55:40;19.43;;;8.13;;
19163;SDS011;9714;51.208;4.242;2023-09-07T03:58:08;19.38;;;7.63;;
19163;SDS011;9714;51.208;4.242;2023-09-07T04:00:39;15.60;;;6.93;;
19163;SDS011;9714;51.208;4.242;2023-09-07T04:03:07;16.37;;;7.23;;
19163;SDS011;9714;51.208;4.242;2023-09-07T04:05:36;18.40;;;8.30;;
19163;SDS011;9714;51.208;4.242;2023-09-07T04:08:04;15.93;;;7.20;;
19163;SDS011;9714;51.208;4.242;2023-09-07T04:10:31;16.90;;;8.43;;
19163;SDS011;9714;51.208;4.242;2023-09-07T04:12:59;16.33;;;7.82;;
19163;SDS011;9714;51.208;4.242;2023-09-07T04:15:27;15.70;;;7.67;;
19163;SDS011;9714;51.208;4.242;2023-09-07T04:17:58;16.83;;;8.60;;
19163;SDS011;9714;51.208;4.242;2023-09-07T04:20:25;21.33;;;7.97;;
19163;SDS011;9714;51.208;4.242;2023-09-07T04:22:54;19.17;;;8.23;;
19163;SDS011;9714;51.208;4.242;2023-09-07T04:27:53;19.83;;;7.67;;
19163;SDS011;9714;51.208;4.242;2023-09-07T04:30:37;18.38;;;7.63;;
19163;SDS011;9714;51.208;4.242;2023-09-07T04:33:11;20.47;;;8.00;;
19163;SDS011;9714;51.208;4.242;2023-09-07T04:38:37;20.03;;;8.00;;
19163;SDS011;9714;51.208;4.242;2023-09-07T04:41:05;18.67;;;8.03;;
19163;SDS011;9714;51.208;4.242;2023-09-07T04:43:43;21.60;;;8.17;;
19163;SDS011;9714;51.208;4.242;2023-09-07T04:49:00;18.00;;;7.70;;
19163;SDS011;9714;51.208;4.242;2023-09-07T04:51:33;18.07;;;8.00;;
19163;SDS011;9714;51.208;4.242;2023-09-07T04:54:02;18.95;;;7.90;;
19163;SDS011;9714;51.208;4.242;2023-09-07T04:56:31;14.63;;;7.40;;
19163;SDS011;9714;51.208;4.242;2023-09-07T04:59:00;19.60;;;8.20;;
19163;SDS011;9714;51.208;4.242;2023-09-07T05:01:40;18.80;;;7.80;;
19163;SDS011;9714;51.208;4.242;2023-09-07T05:04:09;14.10;;;7.77;;
19163;SDS011;9714;51.208;4.242;2023-09-07T05:06:37;14.07;;;7.50;;
19163;SDS011;9714;51.208;4.242;2023-09-07T05:09:05;19.10;;;8.57;;
19163;SDS011;9714;51.208;4.242;2023-09-07T05:11:32;16.93;;;7.90;;
19163;SDS011;9714;51.208;4.242;2023-09-07T05:14:01;16.00;;;8.23;;
19163;SDS011;9714;51.208;4.242;2023-09-07T05:16:28;19.07;;;7.60;;
19163;SDS011;9714;51.208;4.242;2023-09-07T05:18:55;17.43;;;8.30;;
19163;SDS011;9714;51.208;4.242;2023-09-07T05:21:24;18.20;;;7.93;;
19163;SDS011;9714;51.208;4.242;2023-09-07T05:23:52;18.13;;;7.93;;
19163;SDS011;9714;51.208;4.242;2023-09-07T05:26:22;25.70;;;9.77;;
19163;SDS011;9714;51.208;4.242;2023-09-07T05:28:50;15.00;;;8.03;;
19163;SDS011;9714;51.208;4.242;2023-09-07T05:31:18;22.70;;;8.17;;
19163;SDS011;9714;51.208;4.242;2023-09-07T05:33:47;15.27;;;8.17;;
19163;SDS011;9714;51.208;4.242;2023-09-07T05:36:14;20.23;;;8.93;;
19163;SDS011;9714;51.208;4.242;2023-09-07T05:38:42;22.60;;;8.63;;
19163;SDS011;9714;51.208;4.242;2023-09-07T05:41:11;18.30;;;9.20;;
19163;SDS011;9714;51.208;4.242;2023-09-07T05:43:39;17.53;;;8.23;;
19163;SDS011;9714;51.208;4.242;2023-09-07T05:46:06;21.70;;;8.47;;
19163;SDS011;9714;51.208;4.242;2023-09-07T05:48:45;18.70;;;9.43;;
19163;SDS011;9714;51.208;4.242;2023-09-07T05:51:22;19.30;;;8.60;;
19163;SDS011;9714;51.208;4.242;2023-09-07T05:53:53;21.60;;;9.73;;
19163;SDS011;9714;51.208;4.242;2023-09-07T05:56:30;18.93;;;8.40;;
19163;SDS011;9714;51.208;4.242;2023-09-07T05:58:59;21.23;;;10.00;;
19163;SDS011;9714;51.208;4.242;2023-09-07T06:01:33;17.73;;;8.63;;
19163;SDS011;9714;51.208;4.242;2023-09-07T06:04:08;21.77;;;9.60;;
19163;SDS011;9714;51.208;4.242;2023-09-07T06:06:35;19.83;;;8.75;;
19163;SDS011;9714;51.208;4.242;2023-09-07T06:09:06;15.17;;;8.70;;
19163;SDS011;9714;51.208;4.242;2023-09-07T06:11:34;19.47;;;9.27;;
19163;SDS011;9714;51.208;4.242;2023-09-07T06:14:01;18.60;;;8.77;;
19163;SDS011;9714;51.208;4.242;2023-09-07T06:16:30;19.77;;;10.50;;
19163;SDS011;9714;51.208;4.242;2023-09-07T06:18:57;22.80;;;10.63;;
19163;SDS011;9714;51.208;4.242;2023-09-07T06:21:27;18.77;;;9.80;;
19163;SDS011;9714;51.208;4.242;2023-09-07T06:23:54;23.87;;;9.17;;
19163;SDS011;9714;51.208;4.242;2023-09-07T06:26:23;17.30;;;9.43;;
19163;SDS011;9714;51.208;4.242;2023-09-07T06:28:52;19.37;;;9.70;;
19163;SDS011;9714;51.208;4.242;2023-09-07T06:31:19;20.15;;;10.25;;
19163;SDS011;9714;51.208;4.242;2023-09-07T06:33:46;23.57;;;9.80;;
19163;SDS011;9714;51.208;4.242;2023-09-07T06:36:14;20.00;;;10.15;;
19163;SDS011;9714;51.208;4.242;2023-09-07T06:38:41;21.10;;;10.38;;
19163;SDS011;9714;51.208;4.242;2023-09-07T06:41:08;20.08;;;8.73;;
19163;SDS011;9714;51.208;4.242;2023-09-07T06:43:36;19.52;;;9.07;;
19163;SDS011;9714;51.208;4.242;2023-09-07T06:46:05;21.30;;;10.32;;
19163;SDS011;9714;51.208;4.242;2023-09-07T06:48:33;17.27;;;8.40;;
19163;SDS011;9714;51.208;4.242;2023-09-07T06:51:03;17.95;;;8.68;;
19163;SDS011;9714;51.208;4.242;2023-09-07T06:53:31;20.98;;;8.90;;
19163;SDS011;9714;51.208;4.242;2023-09-07T06:55:58;18.27;;;8.40;;
19163;SDS011;9714;51.208;4.242;2023-09-07T06:58:25;18.75;;;8.98;;
19163;SDS011;9714;51.208;4.242;2023-09-07T07:00:56;22.73;;;9.10;;
19163;SDS011;9714;51.208;4.242;2023-09-07T07:03:26;19.35;;;9.02;;
19163;SDS011;9714;51.208;4.242;2023-09-07T07:05:54;17.65;;;8.25;;
19163;SDS011;9714;51.208;4.242;2023-09-07T07:08:21;20.00;;;9.27;;
19163;SDS011;9714;51.208;4.242;2023-09-07T07:10:48;20.58;;;9.52;;
19163;SDS011;9714;51.208;4.242;2023-09-07T07:13:16;22.77;;;9.25;;
19163;SDS011;9714;51.208;4.242;2023-09-07T07:15:43;22.55;;;9.20;;
19163;SDS011;9714;51.208;4.242;2023-09-07T07:18:11;22.17;;;9.02;;
19163;SDS011;9714;51.208;4.242;2023-09-07T07:20:39;19.98;;;8.75;;
19163;SDS011;9714;51.208;4.242;2023-09-07T07:23:06;21.10;;;8.80;;
19163;SDS011;9714;51.208;4.242;2023-09-07T07:25:34;24.20;;;9.48;;
19163;SDS011;9714;51.208;4.242;2023-09-07T07:28:02;22.58;;;9.07;;
19163;SDS011;9714;51.208;4.242;2023-09-07T07:30:31;25.65;;;10.52;;
19163;SDS011;9714;51.208;4.242;2023-09-07T07:32:59;22.63;;;9.27;;
19163;SDS011;9714;51.208;4.242;2023-09-07T07:35:30;23.48;;;9.90;;
19163;SDS011;9714;51.208;4.242;2023-09-07T07:37:57;17.05;;;9.05;;
19163;SDS011;9714;51.208;4.242;2023-09-07T07:40:24;24.77;;;11.07;;
19163;SDS011;9714;51.208;4.242;2023-09-07T07:42:51;17.10;;;9.40;;
19163;SDS011;9714;51.208;4.242;2023-09-07T07:45:19;25.65;;;9.10;;
19163;SDS011;9714;51.208;4.242;2023-09-07T07:47:48;24.13;;;9.95;;
19163;SDS011;9714;51.208;4.242;2023-09-07T07:50:15;18.50;;;7.95;;
19163;SDS011;9714;51.208;4.242;2023-09-07T07:52:44;22.42;;;8.65;;
19163;SDS011;9714;51.208;4.242;2023-09-07T07:55:11;18.17;;;8.38;;
19163;SDS011;9714;51.208;4.242;2023-09-07T07:57:38;19.90;;;7.95;;
19163;SDS011;9714;51.208;4.242;2023-09-07T08:00:06;30.45;;;9.43;;
19163;SDS011;9714;51.208;4.242;2023-09-07T08:02:34;21.77;;;8.07;;
19163;SDS011;9714;51.208;4.242;2023-09-07T08:05:01;17.92;;;8.27;;
19163;SDS011;9714;51.208;4.242;2023-09-07T08:07:30;21.67;;;8.43;;
19163;SDS011;9714;51.208;4.242;2023-09-07T08:09:58;20.20;;;7.75;;
19163;SDS011;9714;51.208;4.242;2023-09-07T08:12:25;18.67;;;6.57;;
19163;SDS011;9714;51.208;4.242;2023-09-07T08:14:53;21.52;;;6.25;;
19163;SDS011;9714;51.208;4.242;2023-09-07T08:17:20;17.05;;;5.88;;
19163;SDS011;9714;51.208;4.242;2023-09-07T08:19:49;17.50;;;6.15;;
19163;SDS011;9714;51.208;4.242;2023-09-07T08:22:21;14.38;;;5.57;;
19163;SDS011;9714;51.208;4.242;2023-09-07T08:24:48;19.95;;;6.50;;
19163;SDS011;9714;51.208;4.242;2023-09-07T08:27:17;19.20;;;6.50;;
19163;SDS011;9714;51.208;4.242;2023-09-07T08:29:45;29.05;;;6.68;;
19163;SDS011;9714;51.208;4.242;2023-09-07T08:32:16;21.50;;;6.38;;
19163;SDS011;9714;51.208;4.242;2023-09-07T08:34:43;16.58;;;5.95;;
19163;SDS011;9714;51.208;4.242;2023-09-07T08:37:11;21.75;;;6.30;;
19163;SDS011;9714;51.208;4.242;2023-09-07T08:39:38;15.30;;;5.43;;
19163;SDS011;9714;51.208;4.242;2023-09-07T08:42:06;15.93;;;5.80;;
19163;SDS011;9714;51.208;4.242;2023-09-07T08:44:36;16.20;;;4.93;;
19163;SDS011;9714;51.208;4.242;2023-09-07T08:47:06;12.32;;;4.50;;
19163;SDS011;9714;51.208;4.242;2023-09-07T08:49:35;12.80;;;5.20;;
19163;SDS011;9714;51.208;4.242;2023-09-07T08:52:02;15.88;;;5.72;;
19163;SDS011;9714;51.208;4.242;2023-09-07T08:54:32;16.58;;;4.20;;
19163;SDS011;9714;51.208;4.242;2023-09-07T08:57:02;10.50;;;4.10;;
19163;SDS011;9714;51.208;4.242;2023-09-07T08:59:30;15.23;;;4.15;;
19163;SDS011;9714;51.208;4.242;2023-09-07T09:01:58;11.82;;;3.95;;
19163;SDS011;9714;51.208;4.242;2023-09-07T09:04:25;16.13;;;3.88;;
19163;SDS011;9714;51.208;4.242;2023-09-07T09:06:56;10.00;;;3.72;;
19163;SDS011;9714;51.208;4.242;2023-09-07T09:09:24;16.63;;;4.05;;
19163;SDS011;9714;51.208;4.242;2023-09-07T09:11:52;14.23;;;3.90;;
19163;SDS011;9714;51.208;4.242;2023-09-07T09:14:20;9.65;;;3.92;;
19163;SDS011;9714;51.208;4.242;2023-09-07T09:16:48;8.10;;;3.40;;
19163;SDS011;9714;51.208;4.242;2023-09-07T09:19:18;9.73;;;3.20;;
19163;SDS011;9714;51.208;4.242;2023-09-07T09:21:45;12.48;;;3.10;;
19163;SDS011;9714;51.208;4.242;2023-09-07T09:24:13;10.48;;;3.55;;
19163;SDS011;9714;51.208;4.242;2023-09-07T09:26:43;9.38;;;3.53;;
19163;SDS011;9714;51.208;4.242;2023-09-07T09:29:10;12.68;;;3.92;;
19163;SDS011;9714;51.208;4.242;2023-09-07T09:31:37;8.43;;;2.90;;
19163;SDS011;9714;51.208;4.242;2023-09-07T09:34:04;8.13;;;2.83;;
19163;SDS011;9714;51.208;4.242;2023-09-07T09:36:36;7.25;;;2.85;;
19163;SDS011;9714;51.208;4.242;2023-09-07T09:39:05;6.50;;;2.88;;
19163;SDS011;9714;51.208;4.242;2023-09-07T09:41:32;10.20;;;2.92;;
19163;SDS011;9714;51.208;4.242;2023-09-07T09:44:00;7.55;;;4.00;;
19163;SDS011;9714;51.208;4.242;2023-09-07T09:46:29;11.63;;;3.10;;
19163;SDS011;9714;51.208;4.242;2023-09-07T09:48:58;8.80;;;3.05;;
19163;SDS011;9714;51.208;4.242;2023-09-07T09:51:26;10.48;;;2.78;;
19163;SDS011;9714;51.208;4.242;2023-09-07T09:53:56;8.93;;;2.88;;
19163;SDS011;9714;51.208;4.242;2023-09-07T09:56:23;9.13;;;3.20;;
19163;SDS011;9714;51.208;4.242;2023-09-07T09:58:51;6.68;;;2.78;;
19163;SDS011;9714;51.208;4.242;2023-09-07T10:01:19;15.50;;;3.17;;
19163;SDS011;9714;51.208;4.242;2023-09-07T10:03:48;10.40;;;3.40;;
19163;SDS011;9714;51.208;4.242;2023-09-07T10:06:20;6.93;;;3.15;;
19163;SDS011;9714;51.208;4.242;2023-09-07T10:08:57;6.53;;;2.78;;
19163;SDS011;9714;51.208;4.242;2023-09-07T10:11:29;9.48;;;2.90;;
19163;SDS011;9714;51.208;4.242;2023-09-07T10:13:57;9.73;;;2.80;;
19163;SDS011;9714;51.208;4.242;2023-09-07T10:16:26;7.78;;;3.10;;
19163;SDS011;9714;51.208;4.242;2023-09-07T10:18:53;8.02;;;3.00;;
19163;SDS011;9714;51.208;4.242;2023-09-07T10:21:24;7.82;;;3.28;;
19163;SDS011;9714;51.208;4.242;2023-09-07T10:23:51;7.00;;;2.70;;
19163;SDS011;9714;51.208;4.242;2023-09-07T10:26:20;7.85;;;2.60;;
19163;SDS011;9714;51.208;4.242;2023-09-07T10:28:48;10.70;;;2.83;;
19163;SDS011;9714;51.208;4.242;2023-09-07T10:31:26;9.50;;;2.78;;
19163;SDS011;9714;51.208;4.242;2023-09-07T10:33:56;7.80;;;3.20;;
19163;SDS011;9714;51.208;4.242;2023-09-07T10:36:34;14.02;;;2.88;;
19163;SDS011;9714;51.208;4.242;2023-09-07T10:39:02;5.28;;;2.53;;
19163;SDS011;9714;51.208;4.242;2023-09-07T10:41:40;6.70;;;2.65;;
19163;SDS011;9714;51.208;4.242;2023-09-07T10:44:08;8.43;;;2.65;;
19163;SDS011;9714;51.208;4.242;2023-09-07T10:46:37;7.00;;;2.67;;
19163;SDS011;9714;51.208;4.242;2023-09-07T10:49:06;9.68;;;3.13;;
19163;SDS011;9714;51.208;4.242;2023-09-07T10:51:45;7.07;;;3.28;;
19163;SDS011;9714;51.208;4.242;2023-09-07T10:54:13;8.27;;;3.08;;
19163;SDS011;9714;51.208;4.242;2023-09-07T10:56:44;8.23;;;3.08;;
19163;SDS011;9714;51.208;4.242;2023-09-07T10:59:12;9.88;;;3.40;;
19163;SDS011;9714;51.208;4.242;2023-09-07T11:01:40;7.90;;;2.65;;
19163;SDS011;9714;51.208;4.242;2023-09-07T11:04:07;10.35;;;3.00;;
19163;SDS011;9714;51.208;4.242;2023-09-07T11:06:36;7.43;;;2.90;;
19163;SDS011;9714;51.208;4.242;2023-09-07T11:09:04;7.82;;;2.55;;
19163;SDS011;9714;51.208;4.242;2023-09-07T11:11:34;6.07;;;2.42;;
19163;SDS011;9714;51.208;4.242;2023-09-07T11:14:03;13.75;;;3.50;;
19163;SDS011;9714;51.208;4.242;2023-09-07T11:16:31;7.45;;;2.50;;
19163;SDS011;9714;51.208;4.242;2023-09-07T11:19:02;8.70;;;3.15;;
19163;SDS011;9714;51.208;4.242;2023-09-07T11:21:29;9.70;;;3.08;;
19163;SDS011;9714;51.208;4.242;2023-09-07T11:24:08;6.15;;;2.47;;
19163;SDS011;9714;51.208;4.242;2023-09-07T11:26:42;5.95;;;2.42;;
19163;SDS011;9714;51.208;4.242;2023-09-07T11:29:13;7.40;;;2.47;;
19163;SDS011;9714;51.208;4.242;2023-09-07T11:31:41;13.07;;;2.80;;
19163;SDS011;9714;51.208;4.242;2023-09-07T11:34:11;9.45;;;2.70;;
19163;SDS011;9714;51.208;4.242;2023-09-07T11:36:40;11.48;;;2.80;;
19163;SDS011;9714;51.208;4.242;2023-09-07T11:39:09;6.10;;;2.50;;
19163;SDS011;9714;51.208;4.242;2023-09-07T11:41:38;49.88;;;7.57;;
19163;SDS011;9714;51.208;4.242;2023-09-07T11:44:06;19.58;;;3.10;;
19163;SDS011;9714;51.208;4.242;2023-09-07T11:46:35;10.23;;;3.30;;
19163;SDS011;9714;51.208;4.242;2023-09-07T11:49:03;5.93;;;2.63;;
19163;SDS011;9714;51.208;4.242;2023-09-07T11:51:31;6.90;;;2.85;;
19163;SDS011;9714;51.208;4.242;2023-09-07T11:53:58;6.28;;;2.30;;
19163;SDS011;9714;51.208;4.242;2023-09-07T11:56:25;6.47;;;2.40;;
19163;SDS011;9714;51.208;4.242;2023-09-07T11:58:52;6.95;;;2.75;;
19163;SDS011;9714;51.208;4.242;2023-09-07T12:01:20;6.10;;;2.60;;
19163;SDS011;9714;51.208;4.242;2023-09-07T12:03:48;8.95;;;2.70;;
19163;SDS011;9714;51.208;4.242;2023-09-07T12:06:15;6.32;;;2.92;;
19163;SDS011;9714;51.208;4.242;2023-09-07T12:08:42;13.20;;;2.90;;
19163;SDS011;9714;51.208;4.242;2023-09-07T12:11:24;6.05;;;2.42;;
19163;SDS011;9714;51.208;4.242;2023-09-07T12:13:52;8.55;;;2.78;;
19163;SDS011;9714;51.208;4.242;2023-09-07T12:16:19;5.93;;;2.50;;
19163;SDS011;9714;51.208;4.242;2023-09-07T12:18:46;11.52;;;2.50;;
19163;SDS011;9714;51.208;4.242;2023-09-07T12:21:14;9.60;;;3.08;;
19163;SDS011;9714;51.208;4.242;2023-09-07T12:23:41;14.18;;;2.88;;
19163;SDS011;9714;51.208;4.242;2023-09-07T12:26:08;7.78;;;2.75;;
19163;SDS011;9714;51.208;4.242;2023-09-07T12:28:35;7.93;;;2.63;;
19163;SDS011;9714;51.208;4.242;2023-09-07T12:31:02;8.07;;;2.22;;
19163;SDS011;9714;51.208;4.242;2023-09-07T12:33:30;8.93;;;2.90;;
19163;SDS011;9714;51.208;4.242;2023-09-07T12:35:58;6.32;;;2.50;;
19163;SDS011;9714;51.208;4.242;2023-09-07T12:38:26;7.35;;;2.40;;
19163;SDS011;9714;51.208;4.242;2023-09-07T12:40:54;10.18;;;2.60;;
19163;SDS011;9714;51.208;4.242;2023-09-07T12:43:21;8.20;;;2.70;;
19163;SDS011;9714;51.208;4.242;2023-09-07T12:45:50;9.32;;;2.50;;
19163;SDS011;9714;51.208;4.242;2023-09-07T12:48:17;8.10;;;2.72;;
19163;SDS011;9714;51.208;4.242;2023-09-07T12:50:45;9.38;;;2.50;;
19163;SDS011;9714;51.208;4.242;2023-09-07T12:53:14;6.22;;;2.25;;
19163;SDS011;9714;51.208;4.242;2023-09-07T12:55:42;5.70;;;2.58;;
19163;SDS011;9714;51.208;4.242;2023-09-07T12:58:09;6.22;;;2.40;;
19163;SDS011;9714;51.208;4.242;2023-09-07T13:00:36;7.40;;;2.55;;
19163;SDS011;9714;51.208;4.242;2023-09-07T13:03:04;11.50;;;2.35;;
19163;SDS011;9714;51.208;4.242;2023-09-07T13:05:31;10.00;;;2.90;;
19163;SDS011;9714;51.208;4.242;2023-09-07T13:08:00;5.07;;;2.47;;
19163;SDS011;9714;51.208;4.242;2023-09-07T13:10:28;9.73;;;2.58;;
19163;SDS011;9714;51.208;4.242;2023-09-07T13:12:57;5.75;;;2.25;;
19163;SDS011;9714;51.208;4.242;2023-09-07T13:15:24;9.15;;;2.78;;
19163;SDS011;9714;51.208;4.242;2023-09-07T13:17:51;11.35;;;2.88;;
19163;SDS011;9714;51.208;4.242;2023-09-07T13:20:18;8.50;;;2.90;;
19163;SDS011;9714;51.208;4.242;2023-09-07T13:22:46;4.10;;;2.08;;
19163;SDS011;9714;51.208;4.242;2023-09-07T13:25:13;11.52;;;2.83;;
19163;SDS011;9714;51.208;4.242;2023-09-07T13:27:40;8.80;;;2.42;;
19163;SDS011;9714;51.208;4.242;2023-09-07T13:30:09;6.20;;;2.67;;
19163;SDS011;9714;51.208;4.242;2023-09-07T13:32:37;6.57;;;2.50;;
19163;SDS011;9714;51.208;4.242;2023-09-07T13:35:04;8.15;;;2.40;;
19163;SDS011;9714;51.208;4.242;2023-09-07T13:37:31;7.97;;;2.55;;
19163;SDS011;9714;51.208;4.242;2023-09-07T13:40:00;8.00;;;2.60;;
19163;SDS011;9714;51.208;4.242;2023-09-07T13:42:28;7.65;;;2.63;;
19163;SDS011;9714;51.208;4.242;2023-09-07T13:44:55;7.55;;;2.80;;
19163;SDS011;9714;51.208;4.242;2023-09-07T13:47:24;5.90;;;2.38;;
19163;SDS011;9714;51.208;4.242;2023-09-07T13:49:51;6.68;;;2.55;;
19163;SDS011;9714;51.208;4.242;2023-09-07T13:52:18;8.95;;;2.40;;
19163;SDS011;9714;51.208;4.242;2023-09-07T13:54:45;9.48;;;2.55;;
19163;SDS011;9714;51.208;4.242;2023-09-07T13:57:12;6.43;;;2.38;;
19163;SDS011;9714;51.208;4.242;2023-09-07T13:59:40;5.75;;;2.58;;
19163;SDS011;9714;51.208;4.242;2023-09-07T14:02:07;7.75;;;2.50;;
19163;SDS011;9714;51.208;4.242;2023-09-07T14:04:35;6.10;;;2.58;;
19163;SDS011;9714;51.208;4.242;2023-09-07T14:07:03;10.27;;;3.00;;
19163;SDS011;9714;51.208;4.242;2023-09-07T14:09:30;5.88;;;2.70;;
19163;SDS011;9714;51.208;4.242;2023-09-07T14:11:59;4.95;;;2.22;;
19163;SDS011;9714;51.208;4.242;2023-09-07T14:14:27;7.78;;;2.38;;
19163;SDS011;9714;51.208;4.242;2023-09-07T14:16:54;5.40;;;2.17;;
19163;SDS011;9714;51.208;4.242;2023-09-07T14:19:23;6.13;;;2.30;;
19163;SDS011;9714;51.208;4.242;2023-09-07T14:21:54;4.63;;;2.28;;
19163;SDS011;9714;51.208;4.242;2023-09-07T14:24:22;10.20;;;2.60;;
19163;SDS011;9714;51.208;4.242;2023-09-07T14:26:51;8.07;;;2.97;;
19163;SDS011;9714;51.208;4.242;2023-09-07T14:29:18;10.07;;;2.60;;
19163;SDS011;9714;51.208;4.242;2023-09-07T14:31:45;6.88;;;2.38;;
19163;SDS011;9714;51.208;4.242;2023-09-07T14:34:12;11.63;;;2.90;;
19163;SDS011;9714;51.208;4.242;2023-09-07T14:36:40;7.95;;;2.70;;
19163;SDS011;9714;51.208;4.242;2023-09-07T14:39:08;9.25;;;2.70;;
19163;SDS011;9714;51.208;4.242;2023-09-07T14:41:36;7.80;;;2.78;;
19163;SDS011;9714;51.208;4.242;2023-09-07T14:44:05;6.78;;;2.67;;
19163;SDS011;9714;51.208;4.242;2023-09-07T14:46:32;5.53;;;2.65;;
19163;SDS011;9714;51.208;4.242;2023-09-07T14:49:00;6.05;;;2.53;;
19163;SDS011;9714;51.208;4.242;2023-09-07T14:51:28;8.20;;;2.88;;
19163;SDS011;9714;51.208;4.242;2023-09-07T14:53:55;11.45;;;3.05;;
19163;SDS011;9714;51.208;4.242;2023-09-07T14:56:24;5.75;;;2.70;;
19163;SDS011;9714;51.208;4.242;2023-09-07T14:58:52;7.28;;;2.90;;
19163;SDS011;9714;51.208;4.242;2023-09-07T15:01:19;7.38;;;2.58;;
19163;SDS011;9714;51.208;4.242;2023-09-07T15:03:46;6.70;;;2.67;;
19163;SDS011;9714;51.208;4.242;2023-09-07T15:06:13;9.45;;;3.08;;
19163;SDS011;9714;51.208;4.242;2023-09-07T15:08:42;7.15;;;2.67;;
19163;SDS011;9714;51.208;4.242;2023-09-07T15:11:10;9.52;;;2.72;;
19163;SDS011;9714;51.208;4.242;2023-09-07T15:13:40;6.90;;;2.88;;
19163;SDS011;9714;51.208;4.242;2023-09-07T15:16:07;7.60;;;2.78;;